Time;durP1;ratioP1;P1;durP2;ratioP2;P2;SDS_P1;SDS_P2;PMS_P1;PMS_P2;Temp;Humidity;BMP_temperature;BMP_pressure;BME280_temperature;BME280_humidity;BME280_pressure;Samples;Min_cycle;Max_cycle;Signal;HPM_P1;HPM_P2
2022/02/21 00:13:50;;;;;;;8.85;5.40;;;;;;;8.46;100.00;98200.32;713386;1174;114593;-74
2022/02/21 00:28:52;;;;;;;9.10;5.47;;;;;;;8.42;100.00;98156.38;713278;1174;115520;-75
2022/02/21 00:43:54;;;;;;;8.68;5.10;;;;;;;8.45;100.00;98120.30;713060;1174;115198;-75
2022/02/21 00:58:56;;;;;;;8.40;4.80;;;;;;;8.51;100.00;98086.62;713051;1174;115174;-75
2022/02/21 01:14:00;;;;;;;6.75;5.05;;;;;;;8.64;100.00;98052.85;713152;1174;114398;-74
2022/02/21 01:29:03;;;;;;;6.40;4.20;;;;;;;8.58;100.00;97998.70;713317;1174;113698;-75
2022/02/21 01:44:10;;;;;;;5.65;4.15;;;;;;;8.56;100.00;97984.98;713013;1174;114479;-75
2022/02/21 01:59:12;;;;;;;7.20;4.97;;;;;;;8.65;100.00;97936.87;713083;1174;114453;-75
2022/02/21 02:14:28;;;;;;;7.03;4.83;;;;;;;8.62;100.00;97884.97;713199;1174;115405;-76
2022/02/21 02:29:30;;;;;;;8.40;4.53;;;;;;;8.70;100.00;97855.28;713186;1174;114440;-76
2022/02/21 02:44:32;;;;;;;5.27;3.53;;;;;;;8.67;100.00;97838.19;712950;1174;115175;-76
2022/02/21 02:59:35;;;;;;;8.35;5.45;;;;;;;8.81;100.00;97774.58;713073;1174;114202;-75
2022/02/21 03:14:37;;;;;;;3.53;3.03;;;;;;;8.88;100.00;97729.41;713243;1174;114967;-75
2022/02/21 03:29:39;;;;;;;3.70;3.40;;;;;;;8.80;100.00;97686.72;713069;1177;114169;-76
2022/02/21 03:44:41;;;;;;;5.13;3.13;;;;;;;8.81;100.00;97651.72;713294;1174;115433;-76
2022/02/21 03:59:43;;;;;;;4.13;2.65;;;;;;;8.87;100.00;97636.28;713050;1174;113800;-76
2022/02/21 04:14:45;;;;;;;5.68;2.60;;;;;;;8.91;100.00;97596.50;716812;1167;114916;-75
2022/02/21 04:29:47;;;;;;;2.53;2.25;;;;;;;8.89;100.00;97553.25;713328;1177;115273;-74
2022/02/21 04:44:50;;;;;;;2.60;2.40;;;;;;;8.90;100.00;97529.52;712881;1175;114859;-74
2022/02/21 04:59:52;;;;;;;2.47;2.23;;;;;;;8.98;100.00;97497.98;712958;1168;115264;-75
2022/02/21 05:14:54;;;;;;;2.95;2.45;;;;;;;9.09;100.00;97488.81;712874;1177;114792;-75
2022/02/21 05:29:56;;;;;;;2.33;2.03;;;;;;;9.09;100.00;97480.97;713088;1175;115384;-75
2022/02/21 05:44:59;;;;;;;3.95;2.50;;;;;;;9.19;100.00;97480.59;713386;1175;114033;-78
2022/02/21 06:00:02;;;;;;;4.93;3.23;;;;;;;9.36;100.00;97454.08;712861;1177;114395;-75
2022/02/21 06:15:05;;;;;;;4.08;2.35;;;;;;;9.41;100.00;97480.47;713015;1175;114527;-75
2022/02/21 06:30:09;;;;;;;3.50;2.70;;;;;;;9.52;100.00;97450.33;713649;1176;114601;-75
2022/02/21 06:45:12;;;;;;;5.50;3.25;;;;;;;9.65;100.00;97460.83;713813;1177;114754;-76
2022/02/21 07:00:16;;;;;;;360.50;192.23;;;;;;;9.64;100.00;97446.91;713663;1175;114923;-79
2022/02/21 07:15:18;;;;;;;9.25;6.10;;;;;;;9.73;100.00;97468.48;714267;1175;116008;-75
2022/02/21 07:30:33;;;;;;;11.40;6.00;;;;;;;9.97;100.00;97443.53;713818;1177;114523;-76
2022/02/21 07:45:35;;;;;;;8.65;5.80;;;;;;;10.03;100.00;97452.42;713866;1176;115326;-76
2022/02/21 08:00:38;;;;;;;10.03;6.60;;;;;;;10.19;100.00;97460.86;713963;1176;114872;-77
2022/02/21 08:15:40;;;;;;;10.40;5.60;;;;;;;10.33;100.00;97494.74;714287;1177;115576;-79
2022/02/21 08:30:42;;;;;;;27.80;13.50;;;;;;;9.80;100.00;97571.39;714928;1177;114376;-78
2022/02/21 08:45:45;;;;;;;28.53;10.10;;;;;;;9.79;100.00;97579.45;713994;1176;115624;-76
2022/02/21 09:00:47;;;;;;;14.10;5.60;;;;;;;10.29;100.00;97558.22;713885;1175;115759;-76
2022/02/21 09:15:53;;;;;;;3.18;2.28;;;;;;;10.93;97.26;97598.01;714230;1177;114225;-77
2022/02/21 09:30:55;;;;;;;6.17;2.57;;;;;;;10.53;91.54;97634.69;714083;1175;115378;-76
2022/02/21 09:46:02;;;;;;;7.15;3.23;;;;;;;10.84;89.92;97651.67;714107;1174;115353;-77
2022/02/21 10:01:04;;;;;;;3.60;1.73;;;;;;;9.44;86.43;97678.96;714281;1177;115372;-76
2022/02/21 10:16:07;;;;;;;8.48;3.70;;;;;;;10.36;85.24;97661.28;714011;1175;113899;-79
2022/02/21 10:31:20;;;;;;;16.33;7.88;;;;;;;10.43;77.75;97696.16;714077;1177;114795;-79
2022/02/21 10:46:23;;;;;;;6.08;2.63;;;;;;;9.73;73.72;97730.27;715210;1175;114335;-78
2022/02/21 11:01:26;;;;;;;12.73;5.27;;;;;;;9.37;71.29;97727.80;714342;1175;114268;-79
2022/02/21 11:16:29;;;;;;;15.55;5.75;;;;;;;9.27;68.98;97804.02;714066;1175;114551;-78
2022/02/21 11:31:34;;;;;;;10.17;5.10;;;;;;;9.08;68.78;97784.50;715200;1175;114561;-78
2022/02/21 11:46:37;;;;;;;29.25;13.85;;;;;;;9.31;70.50;97790.36;715786;1177;113796;-84
2022/02/21 12:02:06;;;;;;;13.50;4.53;;;;;;;9.94;65.55;97797.48;716280;1176;115244;-83
2022/02/21 12:17:08;;;;;;;;;;;;;;;10.50;65.35;97845.58;718361;1176;115543;-82
2022/02/21 12:32:15;;;;;;;7.70;2.28;;;;;;;11.19;65.59;97845.63;716398;1177;100471;-81
2022/02/21 12:47:21;;;;;;;3.70;2.00;;;;;;;10.72;59.98;97875.14;716283;1177;114306;-81
2022/02/21 13:02:31;;;;;;;10.38;3.85;;;;;;;10.70;58.88;97876.34;715937;1175;114164;-85
2022/02/21 13:17:38;;;;;;;5.45;2.80;;;;;;;9.55;59.21;97879.14;715442;1175;115365;-74
2022/02/21 13:32:42;;;;;;;8.88;2.53;;;;;;;10.21;59.05;97893.77;713912;1176;115187;-75
2022/02/21 13:47:56;;;;;;;15.63;6.98;;;;;;;15.33;53.47;97910.25;714257;1175;115060;-73
2022/02/21 14:02:58;;;;;;;8.50;3.35;;;;;;;10.14;54.58;97941.68;715383;1177;115425;-86
2022/02/21 14:18:01;;;;;;;8.18;3.38;;;;;;;9.51;57.83;97959.03;716167;1167;114601;-84
2022/02/21 14:33:04;;;;;;;5.50;2.65;;;;;;;9.60;55.68;97992.75;715994;1175;114348;-76
2022/02/21 14:48:12;;;;;;;10.50;2.83;;;;;;;8.44;59.54;98005.48;713862;1177;114432;-73
2022/02/21 15:03:15;;;;;;;8.35;2.90;;;;;;;8.48;64.66;98012.00;714076;1177;114486;-75
2022/02/21 15:18:18;;;;;;;10.95;5.35;;;;;;;8.54;65.88;97990.39;713822;1175;113609;-74
2022/02/21 15:33:21;;;;;;;16.45;5.53;;;;;;;11.04;63.05;97987.47;713778;1177;115350;-75
2022/02/21 15:48:24;;;;;;;19.73;7.33;;;;;;;7.78;64.01;98004.16;714048;1177;114434;-75
2022/02/21 16:03:35;;;;;;;23.65;9.05;;;;;;;7.35;64.55;98001.16;713891;1176;114438;-75
2022/02/21 16:18:40;;;;;;;67.83;23.23;;;;;;;7.48;65.02;98019.68;714012;1177;115083;-75
2022/02/21 16:33:44;;;;;;;50.50;17.15;;;;;;;6.85;74.59;98088.31;714095;1177;114015;-75
2022/02/21 16:48:47;;;;;;;50.90;20.45;;;;;;;6.72;72.11;98065.35;714208;1177;115428;-75
2022/02/21 17:03:50;;;;;;;25.85;8.05;;;;;;;6.93;69.07;98089.13;714432;1175;115116;-76
2022/02/21 17:18:52;;;;;;;14.58;5.05;;;;;;;6.76;70.11;98087.52;714102;1176;115191;-76
2022/02/21 17:33:55;;;;;;;8.75;3.80;;;;;;;6.82;70.11;98069.43;713966;1175;115802;-74
2022/02/21 17:48:57;;;;;;;20.23;7.47;;;;;;;6.87;68.84;98075.94;714353;1176;114402;-79
2022/02/21 18:03:59;;;;;;;17.45;13.60;;;;;;;6.92;67.48;98084.08;713976;1175;115306;-75
2022/02/21 18:19:04;;;;;;;6.48;3.08;;;;;;;6.99;66.98;98088.47;713918;1176;115685;-76
2022/02/21 18:34:08;;;;;;;11.90;5.90;;;;;;;6.99;66.80;98087.64;714534;1176;113934;-76
2022/02/21 18:49:10;;;;;;;24.10;8.45;;;;;;;7.04;67.27;98089.77;714721;1176;115436;-74
2022/02/21 19:04:14;;;;;;;15.23;4.10;;;;;;;7.00;67.44;98118.75;714542;1175;115221;-73
2022/02/21 19:19:19;;;;;;;8.70;3.28;;;;;;;6.97;67.32;98100.84;714134;1175;114055;-73
2022/02/21 19:34:22;;;;;;;10.97;4.30;;;;;;;7.00;66.91;98120.55;714109;1175;114211;-74
2022/02/21 19:49:24;;;;;;;11.53;4.37;;;;;;;7.01;67.21;98114.37;713889;1176;114147;-74
2022/02/21 20:04:32;;;;;;;11.60;4.70;;;;;;;6.97;67.25;98126.91;714224;1175;114318;-73
2022/02/21 20:19:37;;;;;;;8.40;3.07;;;;;;;6.92;68.24;98144.03;714099;1176;115168;-75
2022/02/21 20:34:50;;;;;;;8.63;3.33;;;;;;;6.97;68.94;98152.98;714172;1177;115159;-74
2022/02/21 20:49:52;;;;;;;17.10;4.77;;;;;;;6.83;69.52;98125.77;713930;1175;115068;-75
2022/02/21 21:04:55;;;;;;;16.50;4.80;;;;;;;6.60;70.27;98124.83;714247;1177;115127;-74
2022/02/21 21:19:58;;;;;;;9.38;3.23;;;;;;;6.61;71.60;98123.82;713752;1175;114464;-74
2022/02/21 21:35:08;;;;;;;7.53;3.38;;;;;;;6.73;71.96;98140.78;714528;1176;114200;-74
2022/02/21 21:50:10;;;;;;;15.77;5.17;;;;;;;6.72;72.31;98161.77;714341;1176;115009;-74
2022/02/21 22:05:14;;;;;;;7.75;3.60;;;;;;;6.69;72.99;98169.91;714495;1176;113860;-74
2022/02/21 22:20:18;;;;;;;21.25;7.25;;;;;;;6.62;73.78;98169.75;714277;1177;114152;-74
2022/02/21 22:35:20;;;;;;;10.10;4.30;;;;;;;6.69;74.11;98190.77;714076;1177;113920;-74
2022/02/21 22:50:22;;;;;;;9.17;3.80;;;;;;;6.38;76.06;98183.56;714215;1177;114528;-74
2022/02/21 23:05:25;;;;;;;10.25;4.23;;;;;;;6.01;78.41;98193.38;713335;1177;114188;-73
2022/02/21 23:20:29;;;;;;;8.03;3.70;;;;;;;5.94;78.61;98182.75;713249;1176;114171;-74
2022/02/21 23:35:31;;;;;;;11.23;4.00;;;;;;;5.94;78.69;98166.33;713361;1177;115804;-74
2022/02/21 23:50:33;;;;;;;5.28;2.40;;;;;;;5.86;80.00;98194.90;712875;1177;115175;-74
